Observations for Trim Market St
| Time | AQI | Temp °C | Hum % | Pres Pa | CO μg/m³ | H₂S μg/m³ | NO μg/m³ | NO₂ μg/m³ | O₃ μg/m³ | SO₂ μg/m³ | PM1 μg/m³ | PM2.5 μg/m³ | PM10 μg/m³ |
|---|---|---|---|---|---|---|---|---|---|---|---|---|---|
| Saturday 22 August 2026 | |||||||||||||
| 22:41 | 2 | 17.1 | 59 | 57,333 | 0.23 | 0 | 2.17 | 18.15 | 53.62 | 0 | 1.43 | 5.6 | 8.92 |
| 22:40 | 2 | 17.1 | 59 | 57,319 | 0.24 | 0 | 2.41 | 23.46 | 46.7 | 0 | 1.43 | 4.09 | 5.44 |
| 22:39 | 2 | 17.1 | 58 | 57,315 | 0.22 | 0 | 2.11 | 19.4 | 54.47 | 0 | 2.85 | 5.1 | 8.22 |
| 22:36 | 2 | 17.1 | 58 | 57,287 | 0.22 | 0 | 1.29 | 11.53 | 60.11 | 0 | 1.43 | 5.11 | 7.53 |
| 22:35 | 2 | 17.1 | 58 | 57,261 | 0.21 | 0 | 1.26 | 12.12 | 62.79 | 0 | 0.71 | 4.11 | 6.83 |
| 22:29 | 2 | 17.2 | 58 | 57,079 | 0.2 | 0 | 1.29 | 12.23 | 60.06 | 0 | 2.14 | 4.63 | 6.13 |
| 22:26 | 2 | 17.2 | 58 | 57,018 | 0.23 | 0 | 1.52 | 37.57 | 25.81 | 0 | 2.14 | 5.64 | 8.23 |
| 22:21 | 2 | 17.3 | 58 | 56,941 | 0.19 | 0 | 1.35 | 12.8 | 58.5 | 0 | 2.14 | 4.64 | 6.13 |
| 22:20 | 2 | 17.3 | 58 | 56,933 | 0.23 | 0 | 1.35 | 11.7 | 59 | 0 | 1.43 | 4.14 | 5.43 |
| 22:19 | 2 | 17.3 | 58 | 56,942 | 0.27 | 0 | 1.31 | 13.56 | 57.15 | 0 | 2.85 | 5.65 | 11.03 |
| 22:17 | 2 | 17.3 | 58 | 56,983 | 0.38 | 0 | 1.34 | 13.12 | 57.06 | 0 | 1.43 | 4.14 | 5.43 |
| 22:16 | 2 | 17.3 | 58 | 57,004 | 0.24 | 0 | 1.29 | 18.66 | 54.31 | 0 | 1.43 | 4.64 | 6.83 |
| 22:15 | 2 | 17.3 | 58 | 57,026 | 0.25 | 0 | 1.29 | 33.06 | 31.78 | 0 | 1.43 | 4.14 | 6.83 |
| 22:14 | 2 | 17.4 | 58 | 57,065 | 0.27 | 0 | 1.28 | 29.53 | 35.29 | 0 | 1.43 | 4.14 | 5.43 |
| 22:13 | 2 | 17.4 | 58 | 57,102 | 0.33 | 0 | 1.29 | 21.55 | 48.58 | 0 | 2.14 | 5.14 | 7.53 |
| 22:12 | 2 | 17.4 | 58 | 57,148 | 0.22 | 0 | 1.28 | 13.48 | 55.91 | 0 | 2.14 | 6.65 | 10.33 |
| 22:11 | 2 | 17.4 | 58 | 57,177 | 0.28 | 0 | 1.29 | 16.89 | 56.49 | 0 | 2.14 | 5.65 | 10.33 |
| 22:06 | 2 | 17.5 | 58 | 57,192 | 0.24 | 0 | 1.28 | 21.88 | 55.5 | 0 | 2.85 | 6.16 | 9.63 |
| 22:05 | 2 | 17.5 | 57 | 57,175 | 0.24 | 0 | 1.28 | 18.43 | 54.81 | 0 | 2.14 | 5.16 | 7.53 |
| 21:57 | 2 | 17.6 | 57 | 57,014 | 0.27 | 0 | 2.93 | 42.56 | 25.1 | 0 | 2.14 | 6.19 | 8.23 |